首页
METAR-TAF:

METAR-TAF

机场 :

蘇黎世機場

苏黎世, 瑞士

纬度: 47-29N, 经度: 008-32E, 海拔: 436米

当前天气观测

该预报发布于22分钟前的02:20 UTC
风速3节,风向西转西北
温度 19°C
湿度 94%
气压 1024 hPa
能见度10公里或以上
1500米以下无云,无积雨云

METAR: LSZH 270220Z 29003KT CAVOK 19/18 Q1024 NOSIG

时间: 04:42 (02:42 UTC)

预报

该预报发布于17分钟前的02:25 UTC
预报有效从27日的 03点(UTC)到 28日的 09点(UTC)
风速3节,风向北转西北
能见度10公里或以上
1500米以下无云,无积雨云
短暂存在
从 27日的 03点(UTC)到 27日的 05点(UTC)
能见度10公里或以上
浅雾
几率 30% :
短暂存在
从 27日的 03点(UTC)到 27日的 05点(UTC)
能見度: 4000
碎片雾
成为
从 27日的 13点(UTC)到 27日的 16点(UTC)
风速8节,风向东北
成为
从 27日的 20点(UTC)到 27日的 23点(UTC)
风速3节,风向多变
几率 40%
从 27日的 20点(UTC)到 28日的 06点(UTC)
能见度10公里或以上
散云层高于5000英尺

TAF: LSZH 270225Z 2703/2809 34003KT CAVOK TX35/2715Z TN19/2704Z TN19/2804Z TEMPO 2703/2705 9999 MIFG PROB30 TEMPO 2703/2705 4000 BCFG BECMG 2713/2716 04008KT BECMG 2720/2723 VRB03KT PROB40 2720/2806 9999 SCT050

超过4000个机场的气象观测和天气预报(METAR&TAF报告)。

可查询的气象台以黄色和红色小点在地图上表示。

将鼠标移到小点上方,可查看气象台名称。

然后点击查看天气观测和预报。

如需切换地图:点击带黑十字的绿色按钮放大地图;点击带横线的绿色按钮缩小地图;或者点击绿色箭头查看邻近地区的地图。


METAR-TAF: